カンポ・グランデ の空港の天気 - METARとTAF

カンポ・グランデ国際空港 ( SBCG / CGR ) - ブラジル マットグロッソ・ド・スル州カンポ・グランデ
飛行場実況気象(Metar)
観測時間10/23 22:00 AMT (10/24 02:00 UTC)
風向・風速北 7m/s
視程10km以上
天気現象
少しの雲 雲底高度 1370m
少しの雲 雲底高度 1520m
全天の4割程度の雲 雲底高度 3050m
気温30℃
湿度55%
気圧1006hPa
METARSBCG 240200Z 35014KT 9999 FEW045 FEW050TCU SCT100 30/20 Q1006
過去の天気等 Google飛行場航空写真 Wunderground天気予報

過去48時間のMETAR

飛行場予報(TAF)
発表時間: 10/23 19:50 AMT (10/23 23:50 UTC)
予報対象時間: 23日20時 AMT ~ 24日20時 AMT
風向・風速北北西 8m/s
視程8000m
全天の8割程度の雲 雲底高度 1370m
少しの塔状積雲 雲底高度 1520m
23日22時 AMT ~ 24日4時 AMT に一時的に
風向・風速南南西 10m/s 瞬間風速 21m/s
視程3000m
天気現象雷雨
全天の8割程度の雲 雲底高度 460m
全天の4割程度の積乱雲 雲底高度 1220m
24日4時 AMT ~ 24日8時 AMT に一時的に
風向・風速西南西 6m/s
視程5000m
天気現象雨 もや
24日8時 AMT ~ 24日14時 AMT に一時的に
視程6000m
天気現象雷雨
全天の8割程度の雲 雲底高度 150m
少しの積乱雲 雲底高度 1220m
24日14時 AMT ~ 24日16時 AMT に徐々に
風向・風速南 5m/s
視程8000m
なし
24日16時 AMT ~ 24日18時 AMT に徐々に
風向・風速南南西 3m/s
全天の8割程度の雲 雲底高度 610m
TAF AMD SBCG 232350Z 2400/2424 34016KT 8000 BKN045 FEW050TCU TN20/2409Z TX25/2416Z
TEMPO 2402/2408 20020G40KT 3000 TSRA BKN015 SCT040CB
TEMPO 2408/2412 25012KT 5000 RA BR
TEMPO 2412/2418 6000 TSRA BKN005 FEW040CB
BECMG 2418/2420 18010KT 8000 NSC
BECMG 2420/2422 20005KT BKN020 RMK PGE